createdAt,value
2023-04-20T00:03:47.029Z,10.40
2023-04-20T00:08:48.963Z,10.30
2023-04-20T00:13:50.984Z,10.20
2023-04-20T00:18:53.035Z,10.20
2023-04-20T00:23:54.853Z,10.10
2023-04-20T00:28:56.653Z,10.10
2023-04-20T00:33:58.436Z,10.00
2023-04-20T00:39:01.161Z,9.90
2023-04-20T00:44:03.058Z,9.80
2023-04-20T00:49:05.861Z,9.90
2023-04-20T00:54:07.759Z,9.60
2023-04-20T00:59:10.488Z,9.50
2023-04-20T01:04:12.666Z,9.50
2023-04-20T01:09:14.964Z,9.30
2023-04-20T01:14:16.935Z,9.40
2023-04-20T01:19:18.889Z,9.30
2023-04-20T01:24:20.864Z,9.20
2023-04-20T01:29:22.705Z,9.10
2023-04-20T01:34:24.485Z,8.90
2023-04-20T01:39:26.288Z,8.80
2023-04-20T01:44:28.173Z,9.00
2023-04-20T01:49:30.055Z,8.70
2023-04-20T01:54:31.938Z,8.60
2023-04-20T01:59:33.843Z,8.50
2023-04-20T02:04:35.856Z,8.40
2023-04-20T02:09:37.615Z,8.40
2023-04-20T02:14:39.366Z,8.50
2023-04-20T02:19:41.181Z,8.50
2023-04-20T02:24:43.904Z,8.60
2023-04-20T02:29:45.868Z,8.50
2023-04-20T02:34:47.683Z,8.40
2023-04-20T02:39:49.684Z,8.10
2023-04-20T02:44:52.841Z,8.10
2023-04-20T02:49:54.748Z,8.10
2023-04-20T02:54:56.584Z,8.00
2023-04-20T02:59:58.401Z,8.10
2023-04-20T03:05:00.207Z,8.00
2023-04-20T03:10:02.129Z,7.90
2023-04-20T03:15:07.564Z,7.80
2023-04-20T03:20:09.713Z,7.70
2023-04-20T03:25:11.926Z,7.60
2023-04-20T03:30:14.387Z,7.70
2023-04-20T03:35:17.688Z,7.70
2023-04-20T03:40:19.673Z,7.80
2023-04-20T03:45:21.594Z,7.70
2023-04-20T03:50:23.467Z,7.60
2023-04-20T03:55:25.448Z,7.50
2023-04-20T04:00:27.234Z,7.80
2023-04-20T04:05:29.357Z,7.40
2023-04-20T04:10:31.351Z,7.10
2023-04-20T04:15:33.373Z,7.10
2023-04-20T04:20:35.404Z,7.40
2023-04-20T04:25:40.653Z,7.40
2023-04-20T04:30:42.697Z,7.40
2023-04-20T04:35:45.597Z,7.50
2023-04-20T04:40:47.780Z,7.30
2023-04-20T04:45:50.754Z,7.60
2023-04-20T04:50:52.903Z,7.60
2023-04-20T04:55:54.802Z,7.50
2023-04-20T05:00:56.886Z,7.60
2023-04-20T05:05:58.768Z,7.50
2023-04-20T05:11:00.948Z,7.60
2023-04-20T05:16:03.046Z,7.60
2023-04-20T05:21:04.994Z,7.70
2023-04-20T05:26:06.789Z,7.70
2023-04-20T05:31:08.555Z,7.80
2023-04-20T05:36:10.688Z,7.90
2023-04-20T05:41:12.502Z,7.70
2023-04-20T05:46:14.293Z,7.70
2023-04-20T05:51:16.418Z,7.90
2023-04-20T05:56:18.600Z,7.90
2023-04-20T06:01:20.435Z,7.90
2023-04-20T06:06:22.258Z,8.00
2023-04-20T06:11:24.062Z,8.00
2023-04-20T06:16:25.990Z,8.10
2023-04-20T06:21:28.105Z,8.10
2023-04-20T06:26:29.871Z,8.10
2023-04-20T06:31:31.700Z,8.10
2023-04-20T06:36:33.551Z,8.10
2023-04-20T06:41:35.651Z,8.20
2023-04-20T06:46:37.469Z,8.30
2023-04-20T06:51:39.602Z,8.30
2023-04-20T06:56:41.390Z,8.30
2023-04-20T07:01:43.221Z,8.50
2023-04-20T07:06:45.248Z,8.50
2023-04-20T07:11:47.010Z,8.30
2023-04-20T07:16:53.045Z,8.00
2023-04-20T07:21:54.945Z,8.30
2023-04-20T07:26:57.192Z,8.20
2023-04-20T07:31:59.070Z,8.10
2023-04-20T07:37:01.497Z,8.20
2023-04-20T07:42:04.306Z,8.40
2023-04-20T07:47:06.136Z,8.60
2023-04-20T07:52:16.490Z,8.60
2023-04-20T07:57:18.884Z,8.60
2023-04-20T08:02:21.039Z,8.40
2023-04-20T08:07:24.032Z,8.60
2023-04-20T08:12:25.909Z,8.60
2023-04-20T08:17:28.288Z,8.70
2023-04-20T08:22:30.270Z,8.50
2023-04-20T08:27:32.427Z,8.70
2023-04-20T08:32:34.248Z,8.60
2023-04-20T08:37:37.580Z,8.80
2023-04-20T08:42:39.469Z,8.90
2023-04-20T08:47:43.524Z,8.80
2023-04-20T08:52:45.599Z,9.00
2023-04-20T08:57:50.062Z,8.90
2023-04-20T09:02:54.526Z,9.10
2023-04-20T09:07:58.828Z,9.30
2023-04-20T09:13:00.649Z,9.60
2023-04-20T09:18:14.221Z,10.00
2023-04-20T09:23:17.814Z,10.40
2023-04-20T09:28:20.222Z,10.30
2023-04-20T09:33:28.707Z,10.20
2023-04-20T09:38:31.154Z,9.90
2023-04-20T09:43:35.354Z,9.80
2023-04-20T09:48:37.375Z,9.90
2023-04-20T09:53:39.767Z,10.00
2023-04-20T09:58:42.869Z,10.00
2023-04-20T10:03:45.605Z,9.80
2023-04-20T10:08:49.035Z,9.60
2023-04-20T10:13:51.042Z,9.60
2023-04-20T10:19:05.771Z,9.40
2023-04-20T10:24:08.913Z,9.60
2023-04-20T10:29:12.468Z,9.80
2023-04-20T10:34:14.266Z,9.90
2023-04-20T10:39:22.867Z,10.00
2023-04-20T10:44:25.655Z,10.30
2023-04-20T10:49:29.376Z,10.80
2023-04-20T10:54:37.859Z,10.90
2023-04-20T10:59:41.501Z,10.60
2023-04-20T11:04:43.276Z,10.60
2023-04-20T11:09:45.258Z,10.50
2023-04-20T11:14:54.497Z,10.50
2023-04-20T11:20:15.422Z,10.70
2023-04-20T11:25:17.209Z,11.80
2023-04-20T11:30:19.737Z,11.90
2023-04-20T11:35:21.718Z,11.40
2023-04-20T11:40:23.570Z,10.90
2023-04-20T11:45:25.630Z,11.30
2023-04-20T11:50:28.143Z,11.40
2023-04-20T11:55:29.973Z,11.20
2023-04-20T12:00:32.124Z,11.30
2023-04-20T12:05:34.017Z,11.10
2023-04-20T12:10:35.886Z,10.80
2023-04-20T12:15:37.844Z,10.50
2023-04-20T12:20:39.733Z,10.90
2023-04-20T12:25:41.567Z,11.20
2023-04-20T12:30:43.414Z,10.80
2023-04-20T12:35:45.297Z,11.50
2023-04-20T12:40:47.103Z,11.70
2023-04-20T12:45:48.884Z,11.50
2023-04-20T12:50:51.120Z,10.90
2023-04-20T12:56:00.258Z,11.10
2023-04-20T13:01:03.983Z,11.20
2023-04-20T13:06:06.319Z,11.50
2023-04-20T13:11:09.086Z,10.30
2023-04-20T13:16:11.492Z,9.20
2023-04-20T13:21:13.349Z,9.20
2023-04-20T13:26:15.227Z,9.50
2023-04-20T13:31:17.819Z,9.80
2023-04-20T13:36:19.622Z,10.50
2023-04-20T13:41:23.641Z,10.80
2023-04-20T13:46:25.733Z,12.00
2023-04-20T13:51:28.120Z,12.50
2023-04-20T13:56:30.063Z,13.20
2023-04-20T14:01:31.981Z,12.60
2023-04-20T14:06:33.840Z,12.00
2023-04-20T14:11:35.643Z,11.20
2023-04-20T14:16:44.761Z,10.80
2023-04-20T14:21:47.397Z,10.50
2023-04-20T14:26:51.335Z,11.00
2023-04-20T14:31:53.180Z,12.80
2023-04-20T14:36:55.026Z,13.50
2023-04-20T14:41:57.643Z,14.00
2023-04-20T14:46:59.674Z,14.60
2023-04-20T14:52:01.635Z,15.00
2023-04-20T14:57:03.754Z,15.70
2023-04-20T15:02:05.964Z,16.00
2023-04-20T15:07:07.975Z,17.30
2023-04-20T15:12:09.863Z,16.40
2023-04-20T15:17:11.868Z,15.10
2023-04-20T15:22:13.772Z,13.80
2023-04-20T15:27:17.120Z,13.10
2023-04-20T15:32:18.982Z,13.00
2023-04-20T15:37:20.901Z,14.20
2023-04-20T15:42:23.065Z,14.50
2023-04-20T15:47:24.987Z,14.90
2023-04-20T15:52:29.813Z,15.40
2023-04-20T15:57:31.689Z,14.80
2023-04-20T16:02:33.869Z,13.70
2023-04-20T16:07:35.735Z,14.70
2023-04-20T16:12:37.542Z,14.90
2023-04-20T16:17:39.446Z,15.80
2023-04-20T16:22:41.400Z,16.20
2023-04-20T16:27:43.176Z,16.60
2023-04-20T16:32:45.048Z,16.50
2023-04-20T16:37:47.042Z,17.30
2023-04-20T16:42:48.960Z,17.60
2023-04-20T16:47:51.411Z,17.60
2023-04-20T16:52:53.496Z,17.50
2023-04-20T16:58:00.213Z,17.40
2023-04-20T17:03:10.583Z,17.50
2023-04-20T17:08:12.674Z,16.30
2023-04-20T17:13:14.503Z,15.60
2023-04-20T17:18:16.304Z,14.80
2023-04-20T17:23:19.034Z,14.30
2023-04-20T17:28:20.885Z,14.00
2023-04-20T17:33:22.673Z,14.20
2023-04-20T17:38:24.655Z,14.00
2023-04-20T17:43:26.438Z,14.00
2023-04-20T17:48:28.235Z,13.90
2023-04-20T17:53:30.078Z,13.70
2023-04-20T17:58:32.155Z,13.60
2023-04-20T18:03:34.139Z,13.60
2023-04-20T18:08:36.078Z,13.50
2023-04-20T18:13:37.827Z,13.30
2023-04-20T18:18:39.620Z,12.90
2023-04-20T18:23:41.451Z,12.80
2023-04-20T18:28:44.994Z,12.50
2023-04-20T18:33:46.751Z,12.30
2023-04-20T18:38:50.587Z,12.30
2023-04-20T18:43:56.489Z,12.20
2023-04-20T18:48:58.571Z,12.10
2023-04-20T18:54:00.336Z,11.90
2023-04-20T18:59:03.312Z,11.80
2023-04-20T19:04:05.317Z,11.80
2023-04-20T19:09:08.339Z,11.60
2023-04-20T19:14:11.277Z,11.40
2023-04-20T19:19:13.108Z,11.40
2023-04-20T19:24:14.916Z,11.20
2023-04-20T19:29:16.828Z,11.10
2023-04-20T19:34:18.801Z,11.00
2023-04-20T19:39:20.924Z,11.00
2023-04-20T19:44:22.849Z,10.90
2023-04-20T19:49:27.318Z,10.70
2023-04-20T19:54:29.099Z,10.70
2023-04-20T19:59:32.649Z,10.70
2023-04-20T20:04:37.704Z,10.70
2023-04-20T20:09:40.974Z,10.50
2023-04-20T20:14:42.828Z,10.50
2023-04-20T20:19:45.008Z,10.30
2023-04-20T20:24:47.926Z,10.10
2023-04-20T20:29:49.758Z,10.00
2023-04-20T20:34:53.135Z,9.80
2023-04-20T20:39:55.097Z,9.70
2023-04-20T20:45:00.375Z,9.70
2023-04-20T20:50:02.618Z,9.70
2023-04-20T20:55:04.946Z,9.60
2023-04-20T21:00:10.260Z,9.50
2023-04-20T21:05:12.323Z,9.40
2023-04-20T21:10:14.100Z,9.20
2023-04-20T21:15:15.979Z,9.00
2023-04-20T21:20:17.882Z,8.90
2023-04-20T21:25:19.798Z,8.80
2023-04-20T21:30:21.650Z,8.70
2023-04-20T21:35:23.543Z,8.70
2023-04-20T21:40:26.969Z,8.60
2023-04-20T21:45:28.818Z,8.60
2023-04-20T21:50:30.573Z,8.50
2023-04-20T21:55:32.473Z,8.40
2023-04-20T22:00:34.301Z,8.30
2023-04-20T22:05:36.504Z,8.30
2023-04-20T22:10:38.305Z,8.10
2023-04-20T22:15:40.215Z,8.30
2023-04-20T22:20:42.320Z,8.20
2023-04-20T22:25:44.299Z,8.20
2023-04-20T22:30:46.110Z,8.00
2023-04-20T22:35:47.989Z,8.00
2023-04-20T22:40:49.787Z,7.90
2023-04-20T22:45:53.436Z,8.00
2023-04-20T22:50:55.366Z,7.90
2023-04-20T22:56:04.987Z,7.60
2023-04-20T23:01:06.862Z,7.90
2023-04-20T23:06:08.940Z,8.00
2023-04-20T23:11:11.131Z,8.00
2023-04-20T23:16:13.423Z,8.30
2023-04-20T23:21:15.296Z,8.30
2023-04-20T23:26:17.130Z,8.30
2023-04-20T23:31:20.025Z,8.40
2023-04-20T23:36:22.008Z,8.30
2023-04-20T23:41:23.776Z,8.50
2023-04-20T23:46:25.880Z,8.60
2023-04-20T23:51:27.796Z,8.60
2023-04-20T23:56:29.569Z,8.80
